sensor_id;sensor_type;location;lat;lon;timestamp;temperature;humidity
26063;DHT22;13837;48.562;12.108;2022-08-04T00:00:39;17.40;99.90
26063;DHT22;13837;48.562;12.108;2022-08-04T00:03:21;17.30;99.90
26063;DHT22;13837;48.562;12.108;2022-08-04T00:06:03;17.10;99.90
26063;DHT22;13837;48.562;12.108;2022-08-04T00:08:33;17.10;99.90
26063;DHT22;13837;48.562;12.108;2022-08-04T00:11:03;17.00;99.90
26063;DHT22;13837;48.562;12.108;2022-08-04T00:13:36;17.00;99.90
26063;DHT22;13837;48.562;12.108;2022-08-04T00:16:08;17.00;99.90
26063;DHT22;13837;48.562;12.108;2022-08-04T00:18:40;16.90;99.90
26063;DHT22;13837;48.562;12.108;2022-08-04T00:21:10;17.00;99.90
26063;DHT22;13837;48.562;12.108;2022-08-04T00:23:38;17.00;99.90
26063;DHT22;13837;48.562;12.108;2022-08-04T00:26:04;17.00;99.90
26063;DHT22;13837;48.562;12.108;2022-08-04T00:28:29;17.00;99.90
26063;DHT22;13837;48.562;12.108;2022-08-04T00:30:56;16.90;99.90
26063;DHT22;13837;48.562;12.108;2022-08-04T00:33:22;17.00;99.90
26063;DHT22;13837;48.562;12.108;2022-08-04T00:35:48;17.00;99.90
26063;DHT22;13837;48.562;12.108;2022-08-04T00:38:18;16.90;99.90
26063;DHT22;13837;48.562;12.108;2022-08-04T00:41:07;16.80;99.90
26063;DHT22;13837;48.562;12.108;2022-08-04T00:49:12;16.30;99.90
26063;DHT22;13837;48.562;12.108;2022-08-04T01:00:12;16.30;99.90
26063;DHT22;13837;48.562;12.108;2022-08-04T01:07:54;16.20;99.90
26063;DHT22;13837;48.562;12.108;2022-08-04T01:10:57;16.10;99.90
26063;DHT22;13837;48.562;12.108;2022-08-04T01:15:58;15.90;99.90
26063;DHT22;13837;48.562;12.108;2022-08-04T01:18:32;15.80;99.90
26063;DHT22;13837;48.562;12.108;2022-08-04T01:26:17;15.80;99.90
26063;DHT22;13837;48.562;12.108;2022-08-04T01:29:07;15.90;99.90
26063;DHT22;13837;48.562;12.108;2022-08-04T01:31:59;16.00;99.90
26063;DHT22;13837;48.562;12.108;2022-08-04T01:34:29;15.90;99.90
26063;DHT22;13837;48.562;12.108;2022-08-04T01:37:11;15.90;99.90
26063;DHT22;13837;48.562;12.108;2022-08-04T01:39:51;15.80;99.90
26063;DHT22;13837;48.562;12.108;2022-08-04T01:42:23;15.80;99.90
26063;DHT22;13837;48.562;12.108;2022-08-04T01:44:51;15.80;99.90
26063;DHT22;13837;48.562;12.108;2022-08-04T01:47:20;15.80;99.90
26063;DHT22;13837;48.562;12.108;2022-08-04T01:49:49;15.70;99.90
26063;DHT22;13837;48.562;12.108;2022-08-04T01:52:16;15.60;99.90
26063;DHT22;13837;48.562;12.108;2022-08-04T01:54:42;15.60;99.90
26063;DHT22;13837;48.562;12.108;2022-08-04T01:57:09;15.70;99.90
26063;DHT22;13837;48.562;12.108;2022-08-04T01:59:37;15.70;99.90
26063;DHT22;13837;48.562;12.108;2022-08-04T02:02:04;15.70;99.90
26063;DHT22;13837;48.562;12.108;2022-08-04T02:04:30;15.80;99.90
26063;DHT22;13837;48.562;12.108;2022-08-04T02:10:12;15.90;99.90
26063;DHT22;13837;48.562;12.108;2022-08-04T02:12:55;15.90;99.90
26063;DHT22;13837;48.562;12.108;2022-08-04T02:15:35;16.00;99.90
26063;DHT22;13837;48.562;12.108;2022-08-04T02:18:09;16.00;99.90
26063;DHT22;13837;48.562;12.108;2022-08-04T02:20:38;15.90;99.90
26063;DHT22;13837;48.562;12.108;2022-08-04T02:23:09;15.80;99.90
26063;DHT22;13837;48.562;12.108;2022-08-04T02:25:41;15.80;99.90
26063;DHT22;13837;48.562;12.108;2022-08-04T02:31:13;15.70;99.90
26063;DHT22;13837;48.562;12.108;2022-08-04T02:33:44;15.70;99.90
26063;DHT22;13837;48.562;12.108;2022-08-04T02:36:21;15.70;99.90
26063;DHT22;13837;48.562;12.108;2022-08-04T02:38:54;15.70;99.90
26063;DHT22;13837;48.562;12.108;2022-08-04T02:41:24;15.70;99.90
26063;DHT22;13837;48.562;12.108;2022-08-04T02:43:51;15.60;99.90
26063;DHT22;13837;48.562;12.108;2022-08-04T02:46:20;15.50;99.90
26063;DHT22;13837;48.562;12.108;2022-08-04T02:48:48;15.50;99.90
26063;DHT22;13837;48.562;12.108;2022-08-04T02:51:16;15.50;99.90
26063;DHT22;13837;48.562;12.108;2022-08-04T02:53:43;15.40;99.90
26063;DHT22;13837;48.562;12.108;2022-08-04T02:56:10;15.40;99.90
26063;DHT22;13837;48.562;12.108;2022-08-04T02:58:39;15.40;99.90
26063;DHT22;13837;48.562;12.108;2022-08-04T03:01:06;15.30;99.90
26063;DHT22;13837;48.562;12.108;2022-08-04T03:15:07;15.20;99.90
26063;DHT22;13837;48.562;12.108;2022-08-04T03:48:25;14.70;99.90
26063;DHT22;13837;48.562;12.108;2022-08-04T03:51:33;14.70;99.90
26063;DHT22;13837;48.562;12.108;2022-08-04T03:57:28;14.70;99.90
26063;DHT22;13837;48.562;12.108;2022-08-04T04:00:13;14.70;99.90
26063;DHT22;13837;48.562;12.108;2022-08-04T04:02:54;14.70;99.90
26063;DHT22;13837;48.562;12.108;2022-08-04T04:08:45;14.70;99.90
26063;DHT22;13837;48.562;12.108;2022-08-04T04:26:01;14.80;99.90
26063;DHT22;13837;48.562;12.108;2022-08-04T04:28:54;14.90;99.90
26063;DHT22;13837;48.562;12.108;2022-08-04T04:37:17;15.00;99.90
26063;DHT22;13837;48.562;12.108;2022-08-04T04:39:54;15.00;99.90
26063;DHT22;13837;48.562;12.108;2022-08-04T04:48:11;15.20;99.90
26063;DHT22;13837;48.562;12.108;2022-08-04T04:53:38;15.40;99.90
26063;DHT22;13837;48.562;12.108;2022-08-04T04:59:02;15.40;99.90
26063;DHT22;13837;48.562;12.108;2022-08-04T05:04:28;15.60;99.90
26063;DHT22;13837;48.562;12.108;2022-08-04T05:10:10;15.80;99.90
26063;DHT22;13837;48.562;12.108;2022-08-04T05:12:42;16.00;99.90
26063;DHT22;13837;48.562;12.108;2022-08-04T05:15:14;16.00;99.90
26063;DHT22;13837;48.562;12.108;2022-08-04T05:17:42;16.10;99.90
26063;DHT22;13837;48.562;12.108;2022-08-04T05:20:23;16.20;99.90
26063;DHT22;13837;48.562;12.108;2022-08-04T05:25:49;16.40;99.90
26063;DHT22;13837;48.562;12.108;2022-08-04T05:28:21;16.40;99.90
26063;DHT22;13837;48.562;12.108;2022-08-04T05:31:16;16.40;99.90
26063;DHT22;13837;48.562;12.108;2022-08-04T05:34:09;16.60;99.90
26063;DHT22;13837;48.562;12.108;2022-08-04T05:36:40;16.80;99.90
26063;DHT22;13837;48.562;12.108;2022-08-04T05:39:16;16.90;99.90
26063;DHT22;13837;48.562;12.108;2022-08-04T05:41:44;17.00;99.90
26063;DHT22;13837;48.562;12.108;2022-08-04T05:44:10;17.10;99.90
26063;DHT22;13837;48.562;12.108;2022-08-04T05:46:36;17.20;99.90
26063;DHT22;13837;48.562;12.108;2022-08-04T05:49:03;17.20;99.90
26063;DHT22;13837;48.562;12.108;2022-08-04T05:51:30;17.30;99.90
26063;DHT22;13837;48.562;12.108;2022-08-04T05:53:58;17.50;99.90
26063;DHT22;13837;48.562;12.108;2022-08-04T05:56:25;17.60;99.90
26063;DHT22;13837;48.562;12.108;2022-08-04T05:58:51;17.70;99.90
26063;DHT22;13837;48.562;12.108;2022-08-04T06:01:19;17.80;99.90
26063;DHT22;13837;48.562;12.108;2022-08-04T06:03:47;18.10;99.90
26063;DHT22;13837;48.562;12.108;2022-08-04T06:06:16;18.20;99.90
26063;DHT22;13837;48.562;12.108;2022-08-04T06:08:43;18.40;99.90
26063;DHT22;13837;48.562;12.108;2022-08-04T06:11:11;18.70;99.90
26063;DHT22;13837;48.562;12.108;2022-08-04T06:13:56;18.80;99.90
26063;DHT22;13837;48.562;12.108;2022-08-04T06:16:24;19.00;99.90
26063;DHT22;13837;48.562;12.108;2022-08-04T06:18:53;19.20;99.90
26063;DHT22;13837;48.562;12.108;2022-08-04T06:21:23;19.40;99.90
26063;DHT22;13837;48.562;12.108;2022-08-04T06:23:51;19.70;99.90
26063;DHT22;13837;48.562;12.108;2022-08-04T06:26:18;19.90;99.90
26063;DHT22;13837;48.562;12.108;2022-08-04T06:28:49;20.20;99.90
26063;DHT22;13837;48.562;12.108;2022-08-04T06:31:19;20.30;99.90
26063;DHT22;13837;48.562;12.108;2022-08-04T06:34:07;20.30;99.90
26063;DHT22;13837;48.562;12.108;2022-08-04T06:36:34;20.40;99.90
26063;DHT22;13837;48.562;12.108;2022-08-04T06:39:04;20.50;99.90
26063;DHT22;13837;48.562;12.108;2022-08-04T06:41:31;20.60;99.90
26063;DHT22;13837;48.562;12.108;2022-08-04T06:44:06;20.80;99.90
26063;DHT22;13837;48.562;12.108;2022-08-04T06:46:34;21.00;99.90
26063;DHT22;13837;48.562;12.108;2022-08-04T06:49:01;21.00;99.90
26063;DHT22;13837;48.562;12.108;2022-08-04T06:51:30;21.00;99.90
26063;DHT22;13837;48.562;12.108;2022-08-04T06:53:57;21.10;99.90
26063;DHT22;13837;48.562;12.108;2022-08-04T06:56:23;21.40;99.90
26063;DHT22;13837;48.562;12.108;2022-08-04T06:58:51;21.70;99.90
26063;DHT22;13837;48.562;12.108;2022-08-04T07:01:20;21.90;99.90
26063;DHT22;13837;48.562;12.108;2022-08-04T07:03:47;21.80;99.90
26063;DHT22;13837;48.562;12.108;2022-08-04T07:06:13;22.00;99.90
26063;DHT22;13837;48.562;12.108;2022-08-04T07:08:40;22.30;99.90
26063;DHT22;13837;48.562;12.108;2022-08-04T07:11:06;22.50;99.90
26063;DHT22;13837;48.562;12.108;2022-08-04T07:13:32;22.80;99.90
26063;DHT22;13837;48.562;12.108;2022-08-04T07:15:59;22.90;99.90
26063;DHT22;13837;48.562;12.108;2022-08-04T07:18:25;23.00;99.90
26063;DHT22;13837;48.562;12.108;2022-08-04T07:20:51;22.70;99.90
26063;DHT22;13837;48.562;12.108;2022-08-04T07:23:22;22.90;99.90
26063;DHT22;13837;48.562;12.108;2022-08-04T07:25:53;23.20;99.90
26063;DHT22;13837;48.562;12.108;2022-08-04T07:28:20;23.30;99.90
26063;DHT22;13837;48.562;12.108;2022-08-04T07:30:48;23.60;99.90
26063;DHT22;13837;48.562;12.108;2022-08-04T07:33:17;23.80;99.90
26063;DHT22;13837;48.562;12.108;2022-08-04T07:35:45;24.00;99.90
26063;DHT22;13837;48.562;12.108;2022-08-04T07:38:11;24.20;99.90
26063;DHT22;13837;48.562;12.108;2022-08-04T07:40:38;24.30;99.90
26063;DHT22;13837;48.562;12.108;2022-08-04T07:43:04;24.50;99.90
26063;DHT22;13837;48.562;12.108;2022-08-04T07:45:30;24.60;99.90
26063;DHT22;13837;48.562;12.108;2022-08-04T07:47:56;24.70;99.90
26063;DHT22;13837;48.562;12.108;2022-08-04T07:50:22;24.50;99.90
26063;DHT22;13837;48.562;12.108;2022-08-04T07:52:49;24.80;99.90
26063;DHT22;13837;48.562;12.108;2022-08-04T07:55:15;24.80;99.90
26063;DHT22;13837;48.562;12.108;2022-08-04T07:57:41;25.00;99.90
26063;DHT22;13837;48.562;12.108;2022-08-04T08:00:09;24.90;99.90
26063;DHT22;13837;48.562;12.108;2022-08-04T08:02:37;24.60;99.90
26063;DHT22;13837;48.562;12.108;2022-08-04T08:05:04;24.90;99.90
26063;DHT22;13837;48.562;12.108;2022-08-04T08:07:32;25.00;99.90
26063;DHT22;13837;48.562;12.108;2022-08-04T08:09:58;25.40;99.90
26063;DHT22;13837;48.562;12.108;2022-08-04T08:12:24;25.60;99.90
26063;DHT22;13837;48.562;12.108;2022-08-04T08:14:50;25.80;99.90
26063;DHT22;13837;48.562;12.108;2022-08-04T08:17:16;26.00;99.90
26063;DHT22;13837;48.562;12.108;2022-08-04T08:19:42;26.20;99.90
26063;DHT22;13837;48.562;12.108;2022-08-04T08:22:09;26.40;99.90
26063;DHT22;13837;48.562;12.108;2022-08-04T08:24:35;26.30;99.90
26063;DHT22;13837;48.562;12.108;2022-08-04T08:27:02;26.50;99.90
26063;DHT22;13837;48.562;12.108;2022-08-04T08:29:33;26.80;99.90
26063;DHT22;13837;48.562;12.108;2022-08-04T08:31:59;27.00;99.90
26063;DHT22;13837;48.562;12.108;2022-08-04T08:34:30;27.20;99.90
26063;DHT22;13837;48.562;12.108;2022-08-04T08:37:21;27.40;99.90
26063;DHT22;13837;48.562;12.108;2022-08-04T08:40:29;27.00;99.90
26063;DHT22;13837;48.562;12.108;2022-08-04T08:45:58;27.30;99.90
26063;DHT22;13837;48.562;12.108;2022-08-04T09:05:41;28.90;99.90
26063;DHT22;13837;48.562;12.108;2022-08-04T09:11:09;29.20;99.90
26063;DHT22;13837;48.562;12.108;2022-08-04T09:13:48;29.40;99.90
26063;DHT22;13837;48.562;12.108;2022-08-04T09:16:46;29.50;99.90
26063;DHT22;13837;48.562;12.108;2022-08-04T09:21:56;29.60;99.90
26063;DHT22;13837;48.562;12.108;2022-08-04T09:27:25;29.70;99.20
26063;DHT22;13837;48.562;12.108;2022-08-04T09:32:55;29.80;99.40
26063;DHT22;13837;48.562;12.108;2022-08-04T09:47:13;30.30;98.20
26063;DHT22;13837;48.562;12.108;2022-08-04T09:49:54;30.60;98.60
26063;DHT22;13837;48.562;12.108;2022-08-04T09:52:43;30.80;98.20
26063;DHT22;13837;48.562;12.108;2022-08-04T09:58:00;30.30;96.20
26063;DHT22;13837;48.562;12.108;2022-08-04T10:00:39;30.30;96.80
26063;DHT22;13837;48.562;12.108;2022-08-04T10:03:08;30.60;96.70
26063;DHT22;13837;48.562;12.108;2022-08-04T10:11:06;31.60;94.80
26063;DHT22;13837;48.562;12.108;2022-08-04T10:16:56;31.80;96.00
26063;DHT22;13837;48.562;12.108;2022-08-04T10:19:34;31.80;93.00
26063;DHT22;13837;48.562;12.108;2022-08-04T10:22:20;32.00;93.10
26063;DHT22;13837;48.562;12.108;2022-08-04T10:27:54;32.10;91.00
26063;DHT22;13837;48.562;12.108;2022-08-04T10:30:22;31.80;91.70
26063;DHT22;13837;48.562;12.108;2022-08-04T10:33:17;32.30;92.40
26063;DHT22;13837;48.562;12.108;2022-08-04T10:35:48;32.60;90.60
26063;DHT22;13837;48.562;12.108;2022-08-04T10:38:25;32.70;90.90
26063;DHT22;13837;48.562;12.108;2022-08-04T10:41:08;33.00;91.70
26063;DHT22;13837;48.562;12.108;2022-08-04T10:46:17;31.50;91.40
26063;DHT22;13837;48.562;12.108;2022-08-04T10:49:01;32.20;91.10
26063;DHT22;13837;48.562;12.108;2022-08-04T10:54:30;33.10;90.30
26063;DHT22;13837;48.562;12.108;2022-08-04T10:57:06;33.20;84.90
26063;DHT22;13837;48.562;12.108;2022-08-04T10:59:33;33.30;83.40
26063;DHT22;13837;48.562;12.108;2022-08-04T11:02:30;33.50;85.30
26063;DHT22;13837;48.562;12.108;2022-08-04T11:05:35;33.70;84.40
26063;DHT22;13837;48.562;12.108;2022-08-04T11:08:28;34.10;83.50
26063;DHT22;13837;48.562;12.108;2022-08-04T11:16:25;33.40;82.80
26063;DHT22;13837;48.562;12.108;2022-08-04T11:25:07;33.30;73.70
26063;DHT22;13837;48.562;12.108;2022-08-04T11:30:36;33.00;78.10
26063;DHT22;13837;48.562;12.108;2022-08-04T11:35:40;32.90;79.00
26063;DHT22;13837;48.562;12.108;2022-08-04T11:38:19;33.40;76.90
26063;DHT22;13837;48.562;12.108;2022-08-04T11:40:56;33.80;72.70
26063;DHT22;13837;48.562;12.108;2022-08-04T11:43:35;32.50;71.10
26063;DHT22;13837;48.562;12.108;2022-08-04T11:46:14;31.60;74.00
26063;DHT22;13837;48.562;12.108;2022-08-04T11:49:06;32.20;76.00
26063;DHT22;13837;48.562;12.108;2022-08-04T11:51:33;33.20;75.10
26063;DHT22;13837;48.562;12.108;2022-08-04T11:54:03;33.70;73.40
26063;DHT22;13837;48.562;12.108;2022-08-04T11:56:30;34.20;74.60
26063;DHT22;13837;48.562;12.108;2022-08-04T11:58:58;34.70;69.00
26063;DHT22;13837;48.562;12.108;2022-08-04T12:01:33;35.00;70.10
26063;DHT22;13837;48.562;12.108;2022-08-04T12:04:33;35.30;70.50
26063;DHT22;13837;48.562;12.108;2022-08-04T12:07:15;35.50;67.30
26063;DHT22;13837;48.562;12.108;2022-08-04T12:09:57;35.40;66.70
26063;DHT22;13837;48.562;12.108;2022-08-04T12:12:36;35.30;67.10
26063;DHT22;13837;48.562;12.108;2022-08-04T12:15:22;35.40;67.00
26063;DHT22;13837;48.562;12.108;2022-08-04T12:20:26;35.50;63.90
26063;DHT22;13837;48.562;12.108;2022-08-04T12:22:54;35.10;63.40
26063;DHT22;13837;48.562;12.108;2022-08-04T12:25:31;35.30;65.60
26063;DHT22;13837;48.562;12.108;2022-08-04T12:28:04;35.60;66.60
26063;DHT22;13837;48.562;12.108;2022-08-04T12:30:35;35.60;66.90
26063;DHT22;13837;48.562;12.108;2022-08-04T12:33:09;35.90;67.40
26063;DHT22;13837;48.562;12.108;2022-08-04T12:35:47;36.10;60.90
26063;DHT22;13837;48.562;12.108;2022-08-04T12:38:20;35.20;66.70
26063;DHT22;13837;48.562;12.108;2022-08-04T12:40:49;35.70;63.80
26063;DHT22;13837;48.562;12.108;2022-08-04T12:43:34;36.10;65.30
26063;DHT22;13837;48.562;12.108;2022-08-04T12:46:04;36.40;61.80
26063;DHT22;13837;48.562;12.108;2022-08-04T12:48:32;36.60;61.20
26063;DHT22;13837;48.562;12.108;2022-08-04T12:51:00;36.60;62.80
26063;DHT22;13837;48.562;12.108;2022-08-04T12:53:31;36.60;62.20
26063;DHT22;13837;48.562;12.108;2022-08-04T12:56:01;36.80;63.00
26063;DHT22;13837;48.562;12.108;2022-08-04T12:58:29;37.00;61.70
26063;DHT22;13837;48.562;12.108;2022-08-04T13:01:01;37.10;60.30
26063;DHT22;13837;48.562;12.108;2022-08-04T13:03:37;37.00;59.80
26063;DHT22;13837;48.562;12.108;2022-08-04T13:06:05;36.80;58.30
26063;DHT22;13837;48.562;12.108;2022-08-04T13:08:36;36.90;59.00
26063;DHT22;13837;48.562;12.108;2022-08-04T13:11:03;36.80;57.60
26063;DHT22;13837;48.562;12.108;2022-08-04T13:13:33;34.30;57.90
26063;DHT22;13837;48.562;12.108;2022-08-04T13:16:05;35.00;60.90
26063;DHT22;13837;48.562;12.108;2022-08-04T13:18:39;35.50;62.80
26063;DHT22;13837;48.562;12.108;2022-08-04T13:21:18;36.00;58.40
26063;DHT22;13837;48.562;12.108;2022-08-04T13:23:46;35.60;57.60
26063;DHT22;13837;48.562;12.108;2022-08-04T13:26:14;36.10;57.00
26063;DHT22;13837;48.562;12.108;2022-08-04T13:28:43;34.90;57.20
26063;DHT22;13837;48.562;12.108;2022-08-04T13:31:25;35.40;61.70
26063;DHT22;13837;48.562;12.108;2022-08-04T13:33:53;36.10;58.90
26063;DHT22;13837;48.562;12.108;2022-08-04T13:36:24;36.10;55.90
26063;DHT22;13837;48.562;12.108;2022-08-04T13:38:53;36.20;53.80
26063;DHT22;13837;48.562;12.108;2022-08-04T13:41:20;36.10;53.70
26063;DHT22;13837;48.562;12.108;2022-08-04T13:43:54;36.20;52.40
26063;DHT22;13837;48.562;12.108;2022-08-04T13:46:32;36.30;51.70
26063;DHT22;13837;48.562;12.108;2022-08-04T13:49:01;35.80;51.90
26063;DHT22;13837;48.562;12.108;2022-08-04T13:51:29;36.00;53.20
26063;DHT22;13837;48.562;12.108;2022-08-04T13:53:59;36.30;50.80
26063;DHT22;13837;48.562;12.108;2022-08-04T13:56:32;36.50;52.10
26063;DHT22;13837;48.562;12.108;2022-08-04T13:59:02;35.20;50.60
26063;DHT22;13837;48.562;12.108;2022-08-04T14:01:29;35.00;51.70
26063;DHT22;13837;48.562;12.108;2022-08-04T14:04:02;35.40;51.50
26063;DHT22;13837;48.562;12.108;2022-08-04T14:06:44;35.80;53.50
26063;DHT22;13837;48.562;12.108;2022-08-04T14:09:18;35.90;51.30
26063;DHT22;13837;48.562;12.108;2022-08-04T14:11:50;35.30;50.70
26063;DHT22;13837;48.562;12.108;2022-08-04T14:19:29;35.20;52.10
26063;DHT22;13837;48.562;12.108;2022-08-04T14:22:28;35.10;52.30
26063;DHT22;13837;48.562;12.108;2022-08-04T14:25:03;35.80;53.80
26063;DHT22;13837;48.562;12.108;2022-08-04T14:27:39;36.10;52.40
26063;DHT22;13837;48.562;12.108;2022-08-04T14:33:11;36.60;52.10
26063;DHT22;13837;48.562;12.108;2022-08-04T14:35:37;36.90;50.90
26063;DHT22;13837;48.562;12.108;2022-08-04T14:38:08;36.80;51.20
26063;DHT22;13837;48.562;12.108;2022-08-04T14:40:40;36.60;50.70
26063;DHT22;13837;48.562;12.108;2022-08-04T14:43:07;36.20;50.90
26063;DHT22;13837;48.562;12.108;2022-08-04T14:45:39;36.50;50.70
26063;DHT22;13837;48.562;12.108;2022-08-04T14:48:09;36.70;54.00
26063;DHT22;13837;48.562;12.108;2022-08-04T14:50:44;36.90;50.60
26063;DHT22;13837;48.562;12.108;2022-08-04T14:53:12;36.50;49.80
26063;DHT22;13837;48.562;12.108;2022-08-04T14:55:41;36.30;50.20
26063;DHT22;13837;48.562;12.108;2022-08-04T14:58:23;36.40;49.90
26063;DHT22;13837;48.562;12.108;2022-08-04T15:00:50;36.60;50.80
26063;DHT22;13837;48.562;12.108;2022-08-04T15:03:18;36.90;52.10
26063;DHT22;13837;48.562;12.108;2022-08-04T15:05:44;37.10;51.30
26063;DHT22;13837;48.562;12.108;2022-08-04T15:08:12;37.30;51.80
26063;DHT22;13837;48.562;12.108;2022-08-04T15:10:40;37.50;50.80
26063;DHT22;13837;48.562;12.108;2022-08-04T15:13:06;36.70;51.80
26063;DHT22;13837;48.562;12.108;2022-08-04T15:15:32;37.10;51.60
26063;DHT22;13837;48.562;12.108;2022-08-04T15:17:58;37.30;49.30
26063;DHT22;13837;48.562;12.108;2022-08-04T15:20:24;37.40;49.50
26063;DHT22;13837;48.562;12.108;2022-08-04T15:22:50;37.40;49.70
26063;DHT22;13837;48.562;12.108;2022-08-04T15:25:16;37.40;50.20
26063;DHT22;13837;48.562;12.108;2022-08-04T15:27:46;37.70;50.00
26063;DHT22;13837;48.562;12.108;2022-08-04T15:30:14;37.20;48.70
26063;DHT22;13837;48.562;12.108;2022-08-04T15:32:52;37.40;51.10
26063;DHT22;13837;48.562;12.108;2022-08-04T15:35:23;37.70;51.90
26063;DHT22;13837;48.562;12.108;2022-08-04T15:38:02;37.00;49.10
26063;DHT22;13837;48.562;12.108;2022-08-04T15:40:51;37.10;50.50
26063;DHT22;13837;48.562;12.108;2022-08-04T15:46:09;37.20;49.90
26063;DHT22;13837;48.562;12.108;2022-08-04T15:48:35;37.30;51.90
26063;DHT22;13837;48.562;12.108;2022-08-04T15:51:05;37.40;51.10
26063;DHT22;13837;48.562;12.108;2022-08-04T15:58:51;37.10;49.70
26063;DHT22;13837;48.562;12.108;2022-08-04T16:01:18;37.10;49.60
26063;DHT22;13837;48.562;12.108;2022-08-04T16:03:48;37.20;50.20
26063;DHT22;13837;48.562;12.108;2022-08-04T16:16:30;36.90;50.70
26063;DHT22;13837;48.562;12.108;2022-08-04T16:19:06;37.10;50.90
26063;DHT22;13837;48.562;12.108;2022-08-04T16:21:34;37.10;50.70
26063;DHT22;13837;48.562;12.108;2022-08-04T16:32:06;37.00;51.20
26063;DHT22;13837;48.562;12.108;2022-08-04T16:34:44;37.10;49.50
26063;DHT22;13837;48.562;12.108;2022-08-04T16:37:11;37.00;50.60
26063;DHT22;13837;48.562;12.108;2022-08-04T16:39:38;37.00;50.90
26063;DHT22;13837;48.562;12.108;2022-08-04T16:52:44;36.40;49.30
26063;DHT22;13837;48.562;12.108;2022-08-04T16:55:13;36.20;48.80
26063;DHT22;13837;48.562;12.108;2022-08-04T16:57:39;36.20;50.20
26063;DHT22;13837;48.562;12.108;2022-08-04T17:00:06;36.30;50.70
26063;DHT22;13837;48.562;12.108;2022-08-04T17:02:33;35.70;50.10
26063;DHT22;13837;48.562;12.108;2022-08-04T17:04:59;35.10;50.80
26063;DHT22;13837;48.562;12.108;2022-08-04T17:07:24;34.50;51.00
26063;DHT22;13837;48.562;12.108;2022-08-04T17:09:51;33.90;52.60
26063;DHT22;13837;48.562;12.108;2022-08-04T17:12:17;34.10;53.60
26063;DHT22;13837;48.562;12.108;2022-08-04T17:14:43;34.10;52.70
26063;DHT22;13837;48.562;12.108;2022-08-04T17:17:08;34.50;52.90
26063;DHT22;13837;48.562;12.108;2022-08-04T17:19:35;34.90;51.80
26063;DHT22;13837;48.562;12.108;2022-08-04T17:22:06;35.10;53.70
26063;DHT22;13837;48.562;12.108;2022-08-04T17:24:36;35.40;52.30
26063;DHT22;13837;48.562;12.108;2022-08-04T17:27:04;35.50;55.30
26063;DHT22;13837;48.562;12.108;2022-08-04T17:29:30;35.60;54.30
26063;DHT22;13837;48.562;12.108;2022-08-04T17:31:55;35.60;55.10
26063;DHT22;13837;48.562;12.108;2022-08-04T17:34:22;35.60;55.20
26063;DHT22;13837;48.562;12.108;2022-08-04T17:36:50;35.30;56.20
26063;DHT22;13837;48.562;12.108;2022-08-04T17:39:20;35.20;56.20
26063;DHT22;13837;48.562;12.108;2022-08-04T17:41:54;35.10;57.40
26063;DHT22;13837;48.562;12.108;2022-08-04T17:44:20;35.10;57.30
26063;DHT22;13837;48.562;12.108;2022-08-04T17:46:45;35.00;58.00
26063;DHT22;13837;48.562;12.108;2022-08-04T17:54:17;34.80;59.10
26063;DHT22;13837;48.562;12.108;2022-08-04T17:56:45;34.60;59.20
26063;DHT22;13837;48.562;12.108;2022-08-04T18:01:50;34.50;60.40
26063;DHT22;13837;48.562;12.108;2022-08-04T18:04:23;34.30;60.70
26063;DHT22;13837;48.562;12.108;2022-08-04T18:06:50;34.20;59.80
26063;DHT22;13837;48.562;12.108;2022-08-04T18:09:35;34.10;59.90
26063;DHT22;13837;48.562;12.108;2022-08-04T18:12:06;34.00;59.40
26063;DHT22;13837;48.562;12.108;2022-08-04T18:14:41;33.80;59.30
26063;DHT22;13837;48.562;12.108;2022-08-04T18:17:07;33.80;58.20
26063;DHT22;13837;48.562;12.108;2022-08-04T18:19:32;33.70;58.40
26063;DHT22;13837;48.562;12.108;2022-08-04T18:21:59;33.70;58.90
26063;DHT22;13837;48.562;12.108;2022-08-04T18:24:26;33.40;61.40
26063;DHT22;13837;48.562;12.108;2022-08-04T18:26:52;33.20;61.10
26063;DHT22;13837;48.562;12.108;2022-08-04T18:29:18;33.00;60.90
26063;DHT22;13837;48.562;12.108;2022-08-04T18:31:43;32.60;63.90
26063;DHT22;13837;48.562;12.108;2022-08-04T18:34:09;32.20;63.80
26063;DHT22;13837;48.562;12.108;2022-08-04T18:36:35;32.10;64.10
26063;DHT22;13837;48.562;12.108;2022-08-04T18:39:04;31.90;67.20
26063;DHT22;13837;48.562;12.108;2022-08-04T18:41:30;31.80;66.50
26063;DHT22;13837;48.562;12.108;2022-08-04T18:43:56;31.70;66.20
26063;DHT22;13837;48.562;12.108;2022-08-04T18:46:25;31.60;66.00
26063;DHT22;13837;48.562;12.108;2022-08-04T18:48:51;31.30;66.40
26063;DHT22;13837;48.562;12.108;2022-08-04T18:51:16;31.20;67.80
26063;DHT22;13837;48.562;12.108;2022-08-04T18:53:45;31.10;68.70
26063;DHT22;13837;48.562;12.108;2022-08-04T18:56:13;31.10;68.40
26063;DHT22;13837;48.562;12.108;2022-08-04T18:58:39;30.90;68.20
26063;DHT22;13837;48.562;12.108;2022-08-04T19:01:05;30.90;68.50
26063;DHT22;13837;48.562;12.108;2022-08-04T19:03:33;30.80;69.20
26063;DHT22;13837;48.562;12.108;2022-08-04T19:06:00;30.60;70.10
26063;DHT22;13837;48.562;12.108;2022-08-04T19:08:26;30.60;70.90
26063;DHT22;13837;48.562;12.108;2022-08-04T19:10:52;30.40;71.50
26063;DHT22;13837;48.562;12.108;2022-08-04T19:13:17;30.20;72.00
26063;DHT22;13837;48.562;12.108;2022-08-04T19:15:43;30.10;72.70
26063;DHT22;13837;48.562;12.108;2022-08-04T19:18:08;30.00;72.50
26063;DHT22;13837;48.562;12.108;2022-08-04T19:20:34;29.90;73.30
26063;DHT22;13837;48.562;12.108;2022-08-04T19:23:00;29.70;73.50
26063;DHT22;13837;48.562;12.108;2022-08-04T19:25:25;29.70;73.90
26063;DHT22;13837;48.562;12.108;2022-08-04T19:27:51;29.70;74.00
26063;DHT22;13837;48.562;12.108;2022-08-04T19:30:17;29.60;74.20
26063;DHT22;13837;48.562;12.108;2022-08-04T19:32:42;29.50;74.30
26063;DHT22;13837;48.562;12.108;2022-08-04T19:35:08;29.40;74.40
26063;DHT22;13837;48.562;12.108;2022-08-04T19:37:34;29.30;74.20
26063;DHT22;13837;48.562;12.108;2022-08-04T19:39:59;29.30;74.60
26063;DHT22;13837;48.562;12.108;2022-08-04T19:42:25;29.20;75.40
26063;DHT22;13837;48.562;12.108;2022-08-04T19:44:51;29.00;75.30
26063;DHT22;13837;48.562;12.108;2022-08-04T19:47:16;28.90;75.20
26063;DHT22;13837;48.562;12.108;2022-08-04T19:49:42;28.80;75.50
26063;DHT22;13837;48.562;12.108;2022-08-04T19:52:08;28.80;76.30
26063;DHT22;13837;48.562;12.108;2022-08-04T19:54:33;28.80;76.30
26063;DHT22;13837;48.562;12.108;2022-08-04T19:56:59;28.70;76.10
26063;DHT22;13837;48.562;12.108;2022-08-04T19:59:25;28.70;76.60